sensor_id;sensor_type;location;lat;lon;timestamp;pressure;altitude;pressure_sealevel;temperature;humidity
65131;BME280;51709;54.912;8.316;2024-01-16T00:00:44;100048.72;;;-0.16;76.43
65131;BME280;51709;54.912;8.316;2024-01-16T00:06:05;100057.94;;;-0.20;76.53
65131;BME280;51709;54.912;8.316;2024-01-16T00:11:27;100059.34;;;-0.27;76.58
65131;BME280;51709;54.912;8.316;2024-01-16T00:16:47;100056.69;;;-0.40;76.59
65131;BME280;51709;54.912;8.316;2024-01-16T00:22:09;100062.03;;;-0.40;76.65
65131;BME280;51709;54.912;8.316;2024-01-16T00:27:30;100064.34;;;-0.35;76.66
65131;BME280;51709;54.912;8.316;2024-01-16T00:32:51;100062.00;;;-0.27;76.50
65131;BME280;51709;54.912;8.316;2024-01-16T00:38:12;100073.06;;;-0.21;76.43
65131;BME280;51709;54.912;8.316;2024-01-16T00:43:33;100071.66;;;-0.14;76.59
65131;BME280;51709;54.912;8.316;2024-01-16T00:48:55;100076.22;;;-0.03;76.56
65131;BME280;51709;54.912;8.316;2024-01-16T00:54:16;100073.25;;;0.02;76.46
65131;BME280;51709;54.912;8.316;2024-01-16T00:59:37;100075.44;;;0.08;76.26
65131;BME280;51709;54.912;8.316;2024-01-16T01:04:58;100066.69;;;0.06;76.30
65131;BME280;51709;54.912;8.316;2024-01-16T01:10:19;100056.44;;;0.12;76.28
65131;BME280;51709;54.912;8.316;2024-01-16T01:15:39;100047.44;;;0.13;76.52
65131;BME280;51709;54.912;8.316;2024-01-16T01:21:00;100056.78;;;0.31;76.28
65131;BME280;51709;54.912;8.316;2024-01-16T01:26:21;100052.84;;;0.71;75.74
65131;BME280;51709;54.912;8.316;2024-01-16T01:31:45;100055.81;;;0.90;75.70
65131;BME280;51709;54.912;8.316;2024-01-16T01:37:07;100045.50;;;1.08;76.03
65131;BME280;51709;54.912;8.316;2024-01-16T01:42:28;100037.91;;;1.26;75.89
65131;BME280;51709;54.912;8.316;2024-01-16T01:47:48;100048.50;;;1.38;75.71
65131;BME280;51709;54.912;8.316;2024-01-16T01:53:09;100036.47;;;1.44;75.87
65131;BME280;51709;54.912;8.316;2024-01-16T01:58:30;100043.03;;;1.51;75.96
65131;BME280;51709;54.912;8.316;2024-01-16T02:03:52;100047.66;;;1.60;75.61
65131;BME280;51709;54.912;8.316;2024-01-16T02:09:13;100049.69;;;1.67;75.40
65131;BME280;51709;54.912;8.316;2024-01-16T02:14:34;100055.19;;;1.77;75.62
65131;BME280;51709;54.912;8.316;2024-01-16T02:19:54;100060.28;;;1.91;75.44
65131;BME280;51709;54.912;8.316;2024-01-16T02:25:15;100058.06;;;2.07;75.53
65131;BME280;51709;54.912;8.316;2024-01-16T02:30:36;100060.72;;;2.18;75.36
65131;BME280;51709;54.912;8.316;2024-01-16T02:35:56;100046.88;;;1.91;75.64
65131;BME280;51709;54.912;8.316;2024-01-16T02:41:17;100048.59;;;1.48;76.46
65131;BME280;51709;54.912;8.316;2024-01-16T02:46:38;100066.09;;;1.30;76.85
65131;BME280;51709;54.912;8.316;2024-01-16T02:51:59;100063.88;;;1.13;77.09
65131;BME280;51709;54.912;8.316;2024-01-16T02:57:20;100062.38;;;0.97;77.33
65131;BME280;51709;54.912;8.316;2024-01-16T03:02:40;100083.72;;;0.86;77.49
65131;BME280;51709;54.912;8.316;2024-01-16T03:08:01;100075.72;;;0.86;77.42
65131;BME280;51709;54.912;8.316;2024-01-16T03:13:21;100080.47;;;0.94;77.36
65131;BME280;51709;54.912;8.316;2024-01-16T03:18:42;100062.03;;;1.02;77.50
65131;BME280;51709;54.912;8.316;2024-01-16T03:24:03;100064.59;;;1.03;77.67
65131;BME280;51709;54.912;8.316;2024-01-16T03:29:24;100070.81;;;1.04;77.82
65131;BME280;51709;54.912;8.316;2024-01-16T03:34:45;100059.75;;;1.08;77.96
65131;BME280;51709;54.912;8.316;2024-01-16T03:40:06;100057.06;;;1.08;77.98
65131;BME280;51709;54.912;8.316;2024-01-16T03:45:28;100042.50;;;1.13;77.96
65131;BME280;51709;54.912;8.316;2024-01-16T03:50:49;100045.91;;;1.15;78.13
65131;BME280;51709;54.912;8.316;2024-01-16T03:56:10;100043.34;;;1.13;78.04
65131;BME280;51709;54.912;8.316;2024-01-16T04:01:31;100036.91;;;1.16;77.83
65131;BME280;51709;54.912;8.316;2024-01-16T04:06:52;100034.34;;;1.14;77.73
65131;BME280;51709;54.912;8.316;2024-01-16T04:12:12;100033.28;;;1.17;78.04
65131;BME280;51709;54.912;8.316;2024-01-16T04:17:33;100023.53;;;1.27;78.21
65131;BME280;51709;54.912;8.316;2024-01-16T04:22:54;100012.84;;;1.38;78.27
65131;BME280;51709;54.912;8.316;2024-01-16T04:28:15;100013.13;;;1.46;78.50
65131;BME280;51709;54.912;8.316;2024-01-16T04:33:35;100020.50;;;1.53;78.38
65131;BME280;51709;54.912;8.316;2024-01-16T04:38:56;100017.47;;;1.58;77.97
65131;BME280;51709;54.912;8.316;2024-01-16T04:44:20;100019.16;;;1.59;77.70
65131;BME280;51709;54.912;8.316;2024-01-16T04:49:44;100017.97;;;1.52;77.55
65131;BME280;51709;54.912;8.316;2024-01-16T04:55:05;100001.03;;;1.51;77.15
65131;BME280;51709;54.912;8.316;2024-01-16T05:00:26;99992.19;;;1.51;77.03
65131;BME280;51709;54.912;8.316;2024-01-16T05:05:46;99996.19;;;1.45;76.77
65131;BME280;51709;54.912;8.316;2024-01-16T05:11:09;100000.69;;;1.45;76.93
65131;BME280;51709;54.912;8.316;2024-01-16T05:16:29;100010.53;;;1.44;76.95
65131;BME280;51709;54.912;8.316;2024-01-16T05:21:50;100009.19;;;1.39;76.79
65131;BME280;51709;54.912;8.316;2024-01-16T05:27:10;100009.22;;;1.28;77.01
65131;BME280;51709;54.912;8.316;2024-01-16T05:32:30;100008.47;;;1.15;77.08
65131;BME280;51709;54.912;8.316;2024-01-16T05:37:51;100000.69;;;1.23;77.01
65131;BME280;51709;54.912;8.316;2024-01-16T05:43:12;100018.19;;;1.27;76.96
65131;BME280;51709;54.912;8.316;2024-01-16T05:48:33;100022.22;;;1.32;76.88
65131;BME280;51709;54.912;8.316;2024-01-16T05:53:53;100015.91;;;1.22;76.90
65131;BME280;51709;54.912;8.316;2024-01-16T05:59:14;100033.28;;;1.28;76.85
65131;BME280;51709;54.912;8.316;2024-01-16T06:04:34;100037.91;;;1.26;76.66
65131;BME280;51709;54.912;8.316;2024-01-16T06:09:55;100032.03;;;1.21;76.91
65131;BME280;51709;54.912;8.316;2024-01-16T06:15:16;100042.03;;;1.19;76.85
65131;BME280;51709;54.912;8.316;2024-01-16T06:20:37;100048.78;;;1.12;76.82
65131;BME280;51709;54.912;8.316;2024-01-16T06:25:59;100049.53;;;1.02;76.74
65131;BME280;51709;54.912;8.316;2024-01-16T06:31:20;100055.97;;;1.00;76.58
65131;BME280;51709;54.912;8.316;2024-01-16T06:36:41;100076.25;;;0.91;76.52
65131;BME280;51709;54.912;8.316;2024-01-16T06:42:02;100080.97;;;0.88;76.36
65131;BME280;51709;54.912;8.316;2024-01-16T06:47:29;100077.88;;;0.81;76.38
65131;BME280;51709;54.912;8.316;2024-01-16T06:52:50;100088.69;;;0.80;76.36
65131;BME280;51709;54.912;8.316;2024-01-16T06:58:10;100096.09;;;0.76;76.41
65131;BME280;51709;54.912;8.316;2024-01-16T07:03:31;100109.47;;;0.76;76.20
65131;BME280;51709;54.912;8.316;2024-01-16T07:08:51;100108.09;;;0.71;76.38
65131;BME280;51709;54.912;8.316;2024-01-16T07:14:12;100126.41;;;0.64;76.40
65131;BME280;51709;54.912;8.316;2024-01-16T07:19:33;100138.53;;;0.57;76.68
65131;BME280;51709;54.912;8.316;2024-01-16T07:31:53;100154.25;;;0.49;77.05
65131;BME280;51709;54.912;8.316;2024-01-16T07:37:15;100154.25;;;0.49;77.07
65131;BME280;51709;54.912;8.316;2024-01-16T07:42:36;100166.88;;;0.47;77.05
65131;BME280;51709;54.912;8.316;2024-01-16T07:47:56;100171.81;;;0.41;77.13
65131;BME280;51709;54.912;8.316;2024-01-16T07:53:17;100185.28;;;0.39;77.17
65131;BME280;51709;54.912;8.316;2024-01-16T07:58:38;100191.25;;;0.43;77.00
65131;BME280;51709;54.912;8.316;2024-01-16T08:03:59;100201.06;;;0.42;76.65
65131;BME280;51709;54.912;8.316;2024-01-16T08:09:19;100208.22;;;0.42;76.75
65131;BME280;51709;54.912;8.316;2024-01-16T08:14:42;100215.84;;;0.35;76.79
65131;BME280;51709;54.912;8.316;2024-01-16T08:20:06;100217.34;;;0.39;76.86
65131;BME280;51709;54.912;8.316;2024-01-16T08:25:30;100220.66;;;0.30;76.96
65131;BME280;51709;54.912;8.316;2024-01-16T08:30:51;100221.94;;;0.37;77.25
65131;BME280;51709;54.912;8.316;2024-01-16T08:36:11;100218.06;;;0.54;76.76
65131;BME280;51709;54.912;8.316;2024-01-16T08:41:32;100225.84;;;0.57;76.72
65131;BME280;51709;54.912;8.316;2024-01-16T08:46:52;100229.75;;;0.64;76.82
65131;BME280;51709;54.912;8.316;2024-01-16T08:52:13;100229.72;;;0.76;76.70
65131;BME280;51709;54.912;8.316;2024-01-16T08:57:36;100222.97;;;0.83;76.93
65131;BME280;51709;54.912;8.316;2024-01-16T09:03:00;100224.72;;;0.95;77.09
65131;BME280;51709;54.912;8.316;2024-01-16T09:08:26;100221.78;;;1.11;77.02
65131;BME280;51709;54.912;8.316;2024-01-16T09:13:48;100224.03;;;1.28;77.08
65131;BME280;51709;54.912;8.316;2024-01-16T09:19:09;100230.56;;;1.48;77.11
65131;BME280;51709;54.912;8.316;2024-01-16T09:24:31;100233.91;;;1.73;76.96
65131;BME280;51709;54.912;8.316;2024-01-16T09:29:52;100228.88;;;1.92;77.22
65131;BME280;51709;54.912;8.316;2024-01-16T09:35:14;100232.16;;;2.18;77.08
65131;BME280;51709;54.912;8.316;2024-01-16T09:40:36;100217.78;;;2.41;76.68
65131;BME280;51709;54.912;8.316;2024-01-16T09:46:00;100228.16;;;2.57;76.26
65131;BME280;51709;54.912;8.316;2024-01-16T09:51:23;100216.09;;;2.62;76.08
65131;BME280;51709;54.912;8.316;2024-01-16T09:56:47;100225.81;;;2.74;75.52
65131;BME280;51709;54.912;8.316;2024-01-16T10:02:11;100223.13;;;2.85;75.20
65131;BME280;51709;54.912;8.316;2024-01-16T10:07:35;100223.81;;;2.98;75.17
65131;BME280;51709;54.912;8.316;2024-01-16T10:12:57;100223.56;;;3.33;75.27
65131;BME280;51709;54.912;8.316;2024-01-16T10:18:23;100213.13;;;3.92;74.61
65131;BME280;51709;54.912;8.316;2024-01-16T10:23:45;100206.06;;;4.51;73.40
65131;BME280;51709;54.912;8.316;2024-01-16T10:29:05;100197.41;;;4.87;72.38
65131;BME280;51709;54.912;8.316;2024-01-16T10:34:26;100202.47;;;4.71;72.86
65131;BME280;51709;54.912;8.316;2024-01-16T10:39:50;100198.91;;;4.71;72.98
65131;BME280;51709;54.912;8.316;2024-01-16T10:45:17;100213.41;;;4.98;72.66
65131;BME280;51709;54.912;8.316;2024-01-16T10:50:39;100210.53;;;4.71;73.13
65131;BME280;51709;54.912;8.316;2024-01-16T10:56:01;100194.03;;;4.55;73.69
65131;BME280;51709;54.912;8.316;2024-01-16T11:01:23;100208.06;;;4.19;74.13
65131;BME280;51709;54.912;8.316;2024-01-16T11:06:44;100202.78;;;3.87;74.44
65131;BME280;51709;54.912;8.316;2024-01-16T11:12:06;100196.31;;;3.49;74.68
65131;BME280;51709;54.912;8.316;2024-01-16T11:17:29;100199.50;;;3.43;74.93
65131;BME280;51709;54.912;8.316;2024-01-16T11:22:52;100198.94;;;3.28;75.16
65131;BME280;51709;54.912;8.316;2024-01-16T11:28:19;100202.94;;;3.34;75.11
65131;BME280;51709;54.912;8.316;2024-01-16T11:39:02;100189.22;;;3.27;75.28
65131;BME280;51709;54.912;8.316;2024-01-16T11:44:36;100202.25;;;3.52;75.26
65131;BME280;51709;54.912;8.316;2024-01-16T11:50:11;100201.00;;;3.56;75.17
65131;BME280;51709;54.912;8.316;2024-01-16T11:55:35;100193.03;;;3.66;75.55
65131;BME280;51709;54.912;8.316;2024-01-16T12:00:57;100179.78;;;3.53;75.74
65131;BME280;51709;54.912;8.316;2024-01-16T12:06:18;100192.56;;;3.61;75.73
65131;BME280;51709;54.912;8.316;2024-01-16T12:11:42;100181.78;;;4.02;75.15
65131;BME280;51709;54.912;8.316;2024-01-16T12:17:11;100160.50;;;4.19;75.20
65131;BME280;51709;54.912;8.316;2024-01-16T12:22:32;100162.25;;;4.30;75.29
65131;BME280;51709;54.912;8.316;2024-01-16T12:28:00;100159.47;;;3.81;76.16
65131;BME280;51709;54.912;8.316;2024-01-16T12:33:23;100153.03;;;3.93;76.10
65131;BME280;51709;54.912;8.316;2024-01-16T12:38:44;100145.25;;;3.90;76.26
65131;BME280;51709;54.912;8.316;2024-01-16T12:44:04;100132.97;;;3.46;76.88
65131;BME280;51709;54.912;8.316;2024-01-16T12:49:42;100127.00;;;3.43;76.74
65131;BME280;51709;54.912;8.316;2024-01-16T12:55:05;100124.75;;;3.38;76.47
65131;BME280;51709;54.912;8.316;2024-01-16T13:00:27;100124.13;;;3.35;76.60
65131;BME280;51709;54.912;8.316;2024-01-16T13:05:58;100109.00;;;3.13;76.54
65131;BME280;51709;54.912;8.316;2024-01-16T13:11:19;100098.94;;;3.26;76.51
65131;BME280;51709;54.912;8.316;2024-01-16T13:16:57;100107.75;;;2.96;76.89
65131;BME280;51709;54.912;8.316;2024-01-16T13:22:18;100097.88;;;2.65;77.42
65131;BME280;51709;54.912;8.316;2024-01-16T13:27:42;100114.13;;;2.42;77.59
65131;BME280;51709;54.912;8.316;2024-01-16T13:33:04;100112.06;;;2.45;78.10
65131;BME280;51709;54.912;8.316;2024-01-16T13:38:26;100103.53;;;2.40;78.14
65131;BME280;51709;54.912;8.316;2024-01-16T13:44:11;100087.00;;;2.24;78.28
65131;BME280;51709;54.912;8.316;2024-01-16T13:49:33;100092.53;;;2.11;78.48
65131;BME280;51709;54.912;8.316;2024-01-16T13:54:54;100079.41;;;1.97;78.80
65131;BME280;51709;54.912;8.316;2024-01-16T14:00:16;100077.06;;;1.93;79.03
65131;BME280;51709;54.912;8.316;2024-01-16T14:05:37;100076.72;;;1.86;78.76
65131;BME280;51709;54.912;8.316;2024-01-16T14:11:00;100068.34;;;1.80;78.59
65131;BME280;51709;54.912;8.316;2024-01-16T14:16:21;100053.50;;;1.76;79.16
65131;BME280;51709;54.912;8.316;2024-01-16T14:22:02;100057.25;;;1.84;78.94
65131;BME280;51709;54.912;8.316;2024-01-16T14:27:23;100043.25;;;1.92;78.71
65131;BME280;51709;54.912;8.316;2024-01-16T14:32:45;100033.41;;;1.92;78.67
65131;BME280;51709;54.912;8.316;2024-01-16T14:38:06;100022.91;;;1.89;78.55
65131;BME280;51709;54.912;8.316;2024-01-16T14:43:26;100029.25;;;1.88;78.77
65131;BME280;51709;54.912;8.316;2024-01-16T14:48:47;100017.69;;;1.77;78.78
65131;BME280;51709;54.912;8.316;2024-01-16T14:54:08;100012.84;;;1.71;78.85
65131;BME280;51709;54.912;8.316;2024-01-16T14:59:29;100014.41;;;1.62;79.07
65131;BME280;51709;54.912;8.316;2024-01-16T15:04:50;100010.78;;;1.52;79.38
65131;BME280;51709;54.912;8.316;2024-01-16T15:10:11;100008.00;;;1.43;79.81
65131;BME280;51709;54.912;8.316;2024-01-16T15:15:32;100013.13;;;1.46;80.01
65131;BME280;51709;54.912;8.316;2024-01-16T15:20:52;99989.03;;;1.46;80.13
65131;BME280;51709;54.912;8.316;2024-01-16T15:26:13;99980.25;;;1.55;79.78
65131;BME280;51709;54.912;8.316;2024-01-16T15:31:40;99968.31;;;1.70;79.79
65131;BME280;51709;54.912;8.316;2024-01-16T15:37:01;99976.06;;;1.84;79.46
65131;BME280;51709;54.912;8.316;2024-01-16T15:42:22;99965.81;;;2.00;79.42
65131;BME280;51709;54.912;8.316;2024-01-16T15:47:45;99962.13;;;2.12;79.04
65131;BME280;51709;54.912;8.316;2024-01-16T15:53:05;99964.41;;;2.17;78.70
65131;BME280;51709;54.912;8.316;2024-01-16T15:58:27;99958.44;;;2.24;78.68
65131;BME280;51709;54.912;8.316;2024-01-16T16:03:52;99959.09;;;2.37;78.65
65131;BME280;51709;54.912;8.316;2024-01-16T16:09:13;99961.53;;;2.40;78.50
65131;BME280;51709;54.912;8.316;2024-01-16T16:14:38;99972.97;;;2.42;78.66
65131;BME280;51709;54.912;8.316;2024-01-16T16:20:01;99963.44;;;2.49;79.12
65131;BME280;51709;54.912;8.316;2024-01-16T16:25:24;99965.59;;;2.55;79.02
65131;BME280;51709;54.912;8.316;2024-01-16T16:30:45;99957.97;;;2.40;79.26
65131;BME280;51709;54.912;8.316;2024-01-16T16:36:07;99955.78;;;2.13;78.89
65131;BME280;51709;54.912;8.316;2024-01-16T16:41:28;99954.13;;;2.01;78.85
65131;BME280;51709;54.912;8.316;2024-01-16T16:46:49;99941.97;;;1.97;78.70
65131;BME280;51709;54.912;8.316;2024-01-16T16:52:10;99940.75;;;2.01;78.77
65131;BME280;51709;54.912;8.316;2024-01-16T16:57:31;99940.22;;;2.07;78.64
65131;BME280;51709;54.912;8.316;2024-01-16T17:02:52;99946.53;;;2.17;78.27
65131;BME280;51709;54.912;8.316;2024-01-16T17:08:13;99943.06;;;2.26;78.32
65131;BME280;51709;54.912;8.316;2024-01-16T17:13:35;99920.53;;;2.49;78.57
65131;BME280;51709;54.912;8.316;2024-01-16T17:18:57;99947.88;;;2.64;78.17
65131;BME280;51709;54.912;8.316;2024-01-16T17:24:17;99951.88;;;2.17;78.54
65131;BME280;51709;54.912;8.316;2024-01-16T17:29:39;99940.97;;;1.98;78.83
65131;BME280;51709;54.912;8.316;2024-01-16T17:35:00;99935.53;;;1.99;78.72
65131;BME280;51709;54.912;8.316;2024-01-16T17:40:20;99931.97;;;1.99;78.40
65131;BME280;51709;54.912;8.316;2024-01-16T17:45:41;99919.56;;;1.98;78.10
65131;BME280;51709;54.912;8.316;2024-01-16T17:51:03;99907.91;;;1.88;78.49
65131;BME280;51709;54.912;8.316;2024-01-16T17:56:24;99917.31;;;1.82;78.33
65131;BME280;51709;54.912;8.316;2024-01-16T18:01:46;99912.22;;;1.79;78.44
65131;BME280;51709;54.912;8.316;2024-01-16T18:07:07;99902.59;;;1.77;78.49
65131;BME280;51709;54.912;8.316;2024-01-16T18:12:28;99892.63;;;1.79;78.72
65131;BME280;51709;54.912;8.316;2024-01-16T18:17:49;99887.13;;;1.80;78.58
65131;BME280;51709;54.912;8.316;2024-01-16T18:23:10;99890.16;;;1.87;78.36
65131;BME280;51709;54.912;8.316;2024-01-16T18:28:31;99885.59;;;1.98;78.18
65131;BME280;51709;54.912;8.316;2024-01-16T18:33:52;99882.97;;;2.19;78.10
65131;BME280;51709;54.912;8.316;2024-01-16T18:39:13;99900.59;;;2.42;77.88
65131;BME280;51709;54.912;8.316;2024-01-16T18:44:34;99882.00;;;2.41;78.08
65131;BME280;51709;54.912;8.316;2024-01-16T18:49:55;99881.63;;;2.34;78.24
65131;BME280;51709;54.912;8.316;2024-01-16T18:55:16;99877.28;;;2.33;78.55
65131;BME280;51709;54.912;8.316;2024-01-16T19:00:37;99859.69;;;2.40;78.42
65131;BME280;51709;54.912;8.316;2024-01-16T19:05:57;99867.09;;;2.48;78.32
65131;BME280;51709;54.912;8.316;2024-01-16T19:11:18;99878.56;;;2.59;78.39
65131;BME280;51709;54.912;8.316;2024-01-16T19:16:39;99878.63;;;2.07;79.26
65131;BME280;51709;54.912;8.316;2024-01-16T19:22:01;99851.97;;;1.85;80.16
65131;BME280;51709;54.912;8.316;2024-01-16T19:27:21;99838.13;;;2.00;79.66
65131;BME280;51709;54.912;8.316;2024-01-16T19:32:43;99838.31;;;2.29;78.93
65131;BME280;51709;54.912;8.316;2024-01-16T19:38:03;99833.91;;;2.39;78.63
65131;BME280;51709;54.912;8.316;2024-01-16T19:43:27;99821.19;;;2.41;78.83
65131;BME280;51709;54.912;8.316;2024-01-16T19:48:47;99828.91;;;2.55;79.15
65131;BME280;51709;54.912;8.316;2024-01-16T19:54:09;99805.84;;;2.73;79.29
65131;BME280;51709;54.912;8.316;2024-01-16T19:59:31;99808.13;;;2.78;79.12
65131;BME280;51709;54.912;8.316;2024-01-16T20:04:52;99791.88;;;2.79;79.30
65131;BME280;51709;54.912;8.316;2024-01-16T20:10:15;99792.59;;;2.81;79.04
65131;BME280;51709;54.912;8.316;2024-01-16T20:15:36;99780.78;;;2.84;78.88
65131;BME280;51709;54.912;8.316;2024-01-16T20:20:57;99778.47;;;2.79;79.13
65131;BME280;51709;54.912;8.316;2024-01-16T20:26:19;99768.03;;;2.76;79.30
65131;BME280;51709;54.912;8.316;2024-01-16T20:31:40;99754.78;;;2.75;79.51
65131;BME280;51709;54.912;8.316;2024-01-16T20:37:01;99742.19;;;2.75;79.25
65131;BME280;51709;54.912;8.316;2024-01-16T20:42:22;99740.94;;;2.79;79.14
65131;BME280;51709;54.912;8.316;2024-01-16T20:47:42;99735.44;;;2.81;79.29
65131;BME280;51709;54.912;8.316;2024-01-16T20:53:04;99736.00;;;2.84;79.03
65131;BME280;51709;54.912;8.316;2024-01-16T20:58:25;99712.72;;;2.85;78.84
65131;BME280;51709;54.912;8.316;2024-01-16T21:03:45;99705.97;;;2.90;78.93
65131;BME280;51709;54.912;8.316;2024-01-16T21:09:07;99697.25;;;2.98;78.93
65131;BME280;51709;54.912;8.316;2024-01-16T21:14:36;99698.66;;;3.11;78.44
65131;BME280;51709;54.912;8.316;2024-01-16T21:19:56;99701.78;;;3.16;78.33
65131;BME280;51709;54.912;8.316;2024-01-16T21:25:21;99699.78;;;3.18;78.33
65131;BME280;51709;54.912;8.316;2024-01-16T21:30:45;99671.44;;;3.26;78.23
65131;BME280;51709;54.912;8.316;2024-01-16T21:36:06;99661.38;;;3.37;77.70
65131;BME280;51709;54.912;8.316;2024-01-16T21:41:28;99665.03;;;3.55;77.48
65131;BME280;51709;54.912;8.316;2024-01-16T21:46:49;99655.44;;;3.53;77.25
65131;BME280;51709;54.912;8.316;2024-01-16T21:52:10;99645.84;;;3.41;77.74
65131;BME280;51709;54.912;8.316;2024-01-16T21:57:31;99642.75;;;3.36;77.75
65131;BME280;51709;54.912;8.316;2024-01-16T22:02:53;99644.16;;;3.40;77.62
65131;BME280;51709;54.912;8.316;2024-01-16T22:08:18;99628.06;;;3.40;77.49
65131;BME280;51709;54.912;8.316;2024-01-16T22:13:38;99617.59;;;3.37;77.79
65131;BME280;51709;54.912;8.316;2024-01-16T22:18:59;99604.06;;;3.29;78.12
65131;BME280;51709;54.912;8.316;2024-01-16T22:24:21;99600.41;;;3.20;77.88
65131;BME280;51709;54.912;8.316;2024-01-16T22:29:42;99591.91;;;3.25;77.85
65131;BME280;51709;54.912;8.316;2024-01-16T22:35:06;99601.22;;;3.40;77.79
65131;BME280;51709;54.912;8.316;2024-01-16T22:40:28;99583.72;;;3.36;78.46
65131;BME280;51709;54.912;8.316;2024-01-16T22:45:50;99557.19;;;3.33;78.75
65131;BME280;51709;54.912;8.316;2024-01-16T22:51:12;99548.66;;;3.37;78.78
65131;BME280;51709;54.912;8.316;2024-01-16T22:56:33;99538.50;;;3.41;78.69
65131;BME280;51709;54.912;8.316;2024-01-16T23:01:54;99551.06;;;3.40;78.66
65131;BME280;51709;54.912;8.316;2024-01-16T23:07:15;99519.41;;;3.44;78.77
65131;BME280;51709;54.912;8.316;2024-01-16T23:12:37;99502.03;;;3.48;78.87
65131;BME280;51709;54.912;8.316;2024-01-16T23:17:58;99498.94;;;3.43;78.88
65131;BME280;51709;54.912;8.316;2024-01-16T23:23:19;99493.88;;;3.40;78.87
65131;BME280;51709;54.912;8.316;2024-01-16T23:28:44;99486.53;;;3.42;78.90
65131;BME280;51709;54.912;8.316;2024-01-16T23:34:05;99460.50;;;3.42;79.07
65131;BME280;51709;54.912;8.316;2024-01-16T23:39:25;99424.66;;;3.43;79.03
65131;BME280;51709;54.912;8.316;2024-01-16T23:44:48;99408.28;;;3.37;79.01
65131;BME280;51709;54.912;8.316;2024-01-16T23:50:09;99408.56;;;3.34;78.95
65131;BME280;51709;54.912;8.316;2024-01-16T23:55:30;99378.91;;;3.35;79.00
